createdAt,value
2022-09-02T00:01:03.120Z,1.20
2022-09-02T00:03:34.794Z,1.15
2022-09-02T00:06:03.141Z,1.00
2022-09-02T00:08:34.330Z,1.10
2022-09-02T00:13:35.037Z,1.08
2022-09-02T00:16:03.933Z,1.13
2022-09-02T00:18:32.543Z,1.20
2022-09-02T00:21:00.899Z,1.17
2022-09-02T00:23:28.655Z,1.10
2022-09-02T00:25:56.692Z,1.10
2022-09-02T00:28:24.818Z,1.27
2022-09-02T00:30:52.882Z,1.30
2022-09-02T00:33:21.064Z,1.25
2022-09-02T00:35:50.611Z,1.40
2022-09-02T00:38:18.996Z,1.20
2022-09-02T00:40:49.351Z,1.27
2022-09-02T00:43:40.071Z,1.27
2022-09-02T00:46:09.408Z,1.15
2022-09-02T00:48:42.046Z,1.27
2022-09-02T00:51:12.409Z,1.10
2022-09-02T00:53:42.844Z,1.20
2022-09-02T00:56:19.983Z,1.10
2022-09-02T00:58:50.600Z,1.20
2022-09-02T01:01:19.536Z,1.33
2022-09-02T01:03:47.499Z,1.30
2022-09-02T01:06:20.192Z,1.10
2022-09-02T01:08:57.219Z,1.37
2022-09-02T01:11:32.482Z,1.20
2022-09-02T01:14:01.877Z,1.40
2022-09-02T01:16:42.153Z,1.40
2022-09-02T01:19:19.051Z,1.40
2022-09-02T01:21:52.924Z,1.27
2022-09-02T01:24:23.089Z,1.30
2022-09-02T01:26:56.276Z,1.58
2022-09-02T01:29:25.652Z,1.30
2022-09-02T01:31:53.788Z,1.40
2022-09-02T01:34:21.677Z,1.55
2022-09-02T01:36:49.958Z,1.70
2022-09-02T01:39:18.087Z,1.50
2022-09-02T01:41:45.962Z,1.77
2022-09-02T01:44:16.285Z,1.50
2022-09-02T01:46:45.309Z,1.45
2022-09-02T01:49:13.715Z,1.35
2022-09-02T01:51:42.594Z,1.40
2022-09-02T01:54:10.429Z,1.45
2022-09-02T01:56:38.845Z,1.50
2022-09-02T01:59:10.407Z,1.62
2022-09-02T02:01:38.194Z,1.25
2022-09-02T02:04:12.733Z,1.25
2022-09-02T02:06:44.325Z,1.20
2022-09-02T02:09:12.617Z,1.60
2022-09-02T02:11:41.764Z,1.60
2022-09-02T02:14:10.077Z,1.30
2022-09-02T02:16:38.625Z,2.05
2022-09-02T02:19:06.778Z,1.50
2022-09-02T02:21:35.022Z,1.42
2022-09-02T02:24:03.015Z,1.42
2022-09-02T02:26:31.829Z,1.20
2022-09-02T02:28:59.849Z,1.50
2022-09-02T02:31:28.247Z,1.60
2022-09-02T02:33:56.526Z,1.40
2022-09-02T02:36:24.392Z,1.62
2022-09-02T02:38:52.241Z,1.60
2022-09-02T02:41:20.880Z,1.52
2022-09-02T02:43:48.850Z,1.40
2022-09-02T02:46:16.729Z,1.60
2022-09-02T02:48:44.836Z,1.55
2022-09-02T02:51:12.809Z,1.75
2022-09-02T02:53:41.389Z,1.52
2022-09-02T02:56:09.967Z,1.50
2022-09-02T02:58:38.337Z,1.50
2022-09-02T03:01:08.208Z,1.35
2022-09-02T03:03:36.650Z,1.70
2022-09-02T03:06:05.340Z,1.50
2022-09-02T03:08:33.713Z,1.58
2022-09-02T03:11:03.093Z,1.45
2022-09-02T03:13:32.630Z,1.70
2022-09-02T03:16:01.634Z,1.52
2022-09-02T03:18:29.458Z,1.83
2022-09-02T03:20:57.603Z,1.80
2022-09-02T03:23:26.140Z,1.70
2022-09-02T03:25:54.242Z,1.52
2022-09-02T03:28:24.912Z,1.90
2022-09-02T03:30:53.327Z,1.67
2022-09-02T03:33:21.325Z,1.45
2022-09-02T03:35:49.147Z,1.90
2022-09-02T03:38:17.219Z,1.60
2022-09-02T03:40:45.829Z,1.65
2022-09-02T03:43:15.058Z,2.00
2022-09-02T03:45:43.556Z,1.50
2022-09-02T03:48:13.691Z,1.52
2022-09-02T03:50:44.659Z,1.65
2022-09-02T03:53:19.910Z,1.52
2022-09-02T03:55:51.108Z,1.58
2022-09-02T03:58:19.949Z,1.65
2022-09-02T04:00:52.539Z,1.25
2022-09-02T04:03:22.079Z,1.77
2022-09-02T04:05:52.581Z,1.73
2022-09-02T04:08:22.157Z,1.77
2022-09-02T04:10:50.258Z,1.67
2022-09-02T04:13:18.608Z,1.90
2022-09-02T04:15:49.283Z,1.60
2022-09-02T04:18:17.918Z,1.50
2022-09-02T04:20:45.738Z,1.62
2022-09-02T04:23:14.813Z,1.80
2022-09-02T04:25:44.696Z,1.50
2022-09-02T04:28:13.243Z,1.80
2022-09-02T04:30:43.018Z,1.70
2022-09-02T04:33:11.925Z,1.85
2022-09-02T04:35:41.625Z,1.80
2022-09-02T04:38:10.212Z,1.83
2022-09-02T04:40:47.206Z,2.17
2022-09-02T04:43:15.684Z,1.83
2022-09-02T04:45:46.025Z,2.00
2022-09-02T04:48:14.661Z,2.03
2022-09-02T04:50:43.567Z,1.98
2022-09-02T04:53:12.330Z,1.92
2022-09-02T04:55:41.563Z,2.03
2022-09-02T04:58:11.266Z,2.25
2022-09-02T05:00:39.649Z,1.87
2022-09-02T05:03:08.895Z,1.98
2022-09-02T05:05:39.238Z,1.70
2022-09-02T05:08:08.699Z,1.87
2022-09-02T05:10:38.560Z,2.28
2022-09-02T05:13:06.991Z,1.80
2022-09-02T05:15:40.833Z,1.90
2022-09-02T05:18:10.443Z,2.08
2022-09-02T05:20:40.686Z,2.10
2022-09-02T05:23:08.831Z,1.77
2022-09-02T05:25:38.086Z,2.00
2022-09-02T05:28:09.006Z,2.10
2022-09-02T05:30:39.870Z,2.00
2022-09-02T05:33:09.161Z,1.87
2022-09-02T05:35:45.534Z,1.80
2022-09-02T05:38:17.336Z,1.85
2022-09-02T05:40:46.160Z,2.20
2022-09-02T05:43:14.003Z,2.17
2022-09-02T05:45:41.771Z,1.65
2022-09-02T05:48:29.318Z,1.90
2022-09-02T05:50:59.431Z,1.90
2022-09-02T05:53:27.876Z,2.30
2022-09-02T05:55:55.779Z,2.00
2022-09-02T05:58:24.081Z,1.87
2022-09-02T06:00:52.453Z,2.03
2022-09-02T06:03:22.637Z,2.03
2022-09-02T06:05:56.149Z,2.10
2022-09-02T06:08:25.655Z,2.35
2022-09-02T06:10:53.778Z,2.08
2022-09-02T06:13:22.726Z,2.03
2022-09-02T06:15:51.889Z,2.45
2022-09-02T06:18:20.245Z,1.98
2022-09-02T06:20:49.249Z,1.98
2022-09-02T06:23:18.166Z,2.35
2022-09-02T06:25:48.436Z,1.92
2022-09-02T06:28:16.704Z,2.05
2022-09-02T06:30:48.501Z,2.10
2022-09-02T06:33:17.052Z,2.17
2022-09-02T06:35:46.527Z,2.37
2022-09-02T06:38:16.095Z,1.95
2022-09-02T06:40:54.807Z,2.35
2022-09-02T06:43:24.198Z,2.47
2022-09-02T06:45:56.621Z,1.80
2022-09-02T06:48:26.010Z,2.80
2022-09-02T06:50:55.308Z,2.00
2022-09-02T06:53:24.523Z,1.95
2022-09-02T06:55:53.293Z,2.10
2022-09-02T06:58:21.563Z,2.10
2022-09-02T07:00:49.391Z,1.95
2022-09-02T07:03:39.118Z,2.05
2022-09-02T07:08:43.583Z,2.33
2022-09-02T07:11:19.117Z,1.80
2022-09-02T07:13:48.185Z,1.92
2022-09-02T07:16:26.722Z,2.15
2022-09-02T07:18:56.161Z,2.20
2022-09-02T07:21:24.466Z,2.10
2022-09-02T07:23:52.257Z,1.90
2022-09-02T07:26:20.290Z,2.40
2022-09-02T07:28:48.076Z,2.47
2022-09-02T07:31:16.908Z,2.22
2022-09-02T07:33:49.901Z,2.30
2022-09-02T07:36:21.699Z,2.08
2022-09-02T07:38:49.987Z,2.20
2022-09-02T07:41:18.120Z,2.30
2022-09-02T07:43:51.004Z,2.40
2022-09-02T07:46:20.451Z,2.40
2022-09-02T07:48:50.270Z,2.45
2022-09-02T07:51:20.015Z,1.98
2022-09-02T07:53:49.757Z,2.40
2022-09-02T07:56:18.154Z,2.33
2022-09-02T07:58:46.315Z,2.37
2022-09-02T08:01:15.388Z,2.15
2022-09-02T08:03:45.230Z,2.20
2022-09-02T08:06:14.042Z,2.10
2022-09-02T08:08:43.509Z,2.22
2022-09-02T08:11:12.321Z,2.25
2022-09-02T08:13:40.351Z,2.75
2022-09-02T08:16:08.382Z,2.45
2022-09-02T08:18:38.610Z,2.50
2022-09-02T08:21:06.709Z,2.72
2022-09-02T08:23:37.110Z,2.35
2022-09-02T08:26:06.590Z,2.50
2022-09-02T08:28:35.245Z,2.30
2022-09-02T08:31:09.160Z,2.72
2022-09-02T08:33:37.309Z,2.45
2022-09-02T08:36:08.546Z,2.83
2022-09-02T08:38:37.044Z,2.20
2022-09-02T08:41:22.098Z,2.37
2022-09-02T08:43:53.163Z,2.75
2022-09-02T08:46:26.034Z,2.30
2022-09-02T08:49:00.775Z,2.35
2022-09-02T08:51:37.235Z,2.67
2022-09-02T08:54:17.324Z,2.40
2022-09-02T08:56:45.493Z,2.37
2022-09-02T08:59:15.908Z,2.30
2022-09-02T09:01:56.000Z,2.65
2022-09-02T09:04:46.041Z,2.47
2022-09-02T09:10:26.090Z,2.47
2022-09-02T09:13:11.964Z,2.30
2022-09-02T09:15:45.864Z,2.50
2022-09-02T09:18:19.354Z,2.47
2022-09-02T09:20:48.651Z,2.70
2022-09-02T09:23:38.168Z,3.05
2022-09-02T09:26:16.586Z,2.60
2022-09-02T09:28:50.438Z,2.53
2022-09-02T09:31:22.000Z,2.72
2022-09-02T09:34:07.839Z,2.80
2022-09-02T09:36:41.707Z,3.10
2022-09-02T09:39:26.904Z,2.87
2022-09-02T09:42:03.986Z,2.50
2022-09-02T09:44:46.477Z,2.90
2022-09-02T09:47:20.378Z,2.85
2022-09-02T09:49:50.427Z,2.62
2022-09-02T09:52:29.895Z,2.80
2022-09-02T09:55:24.838Z,2.92
2022-09-02T09:58:07.601Z,3.03
2022-09-02T10:00:35.540Z,3.75
2022-09-02T10:03:06.836Z,3.00
2022-09-02T10:05:37.757Z,3.00
2022-09-02T10:08:20.863Z,2.95
2022-09-02T10:11:03.472Z,2.90
2022-09-02T10:13:34.817Z,3.33
2022-09-02T10:16:33.321Z,3.22
2022-09-02T10:19:29.546Z,2.95
2022-09-02T10:21:57.177Z,2.85
2022-09-02T10:24:28.062Z,3.42
2022-09-02T10:26:59.951Z,3.20
2022-09-02T10:29:44.195Z,3.60
2022-09-02T10:32:33.854Z,3.20
2022-09-02T10:35:36.613Z,3.12
2022-09-02T10:38:19.649Z,3.35
2022-09-02T10:41:13.971Z,2.92
2022-09-02T10:44:00.024Z,3.53
2022-09-02T10:46:43.233Z,2.87
2022-09-02T10:49:20.265Z,3.20
2022-09-02T10:52:12.592Z,3.40
2022-09-02T10:55:28.855Z,3.22
2022-09-02T10:58:22.403Z,2.97
2022-09-02T11:00:55.400Z,3.35
2022-09-02T11:03:34.297Z,3.35
2022-09-02T11:06:51.735Z,3.20
2022-09-02T11:09:43.621Z,2.80
2022-09-02T11:12:23.141Z,2.70
2022-09-02T11:15:18.239Z,2.53
2022-09-02T11:18:02.168Z,2.55
2022-09-02T11:20:55.793Z,2.37
2022-09-02T11:23:46.647Z,2.75
2022-09-02T11:26:29.930Z,2.10
2022-09-02T11:29:16.421Z,2.55
2022-09-02T11:31:58.769Z,2.20
2022-09-02T11:34:40.497Z,2.40
2022-09-02T11:37:12.623Z,2.20
2022-09-02T11:39:59.179Z,1.87
2022-09-02T11:42:55.013Z,2.03
2022-09-02T11:45:41.511Z,2.42
2022-09-02T11:48:20.490Z,2.40
2022-09-02T11:51:25.824Z,2.62
2022-09-02T11:53:58.013Z,2.47
2022-09-02T11:56:30.819Z,2.30
2022-09-02T11:58:58.930Z,2.20
2022-09-02T12:01:33.234Z,2.30
2022-09-02T12:07:24.326Z,2.20
2022-09-02T12:09:56.764Z,2.08
2022-09-02T12:12:36.593Z,1.85
2022-09-02T12:15:08.251Z,1.92
2022-09-02T12:17:49.872Z,1.70
2022-09-02T12:20:36.453Z,1.80
2022-09-02T12:23:04.930Z,1.80
2022-09-02T12:25:38.284Z,2.08
2022-09-02T12:28:19.012Z,1.60
2022-09-02T12:31:15.428Z,1.70
2022-09-02T12:33:49.372Z,1.50
2022-09-02T12:36:43.729Z,1.33
2022-09-02T12:39:30.760Z,1.42
2022-09-02T12:42:12.737Z,1.40
2022-09-02T12:45:26.847Z,1.40
2022-09-02T12:48:08.712Z,1.48
2022-09-02T12:50:56.037Z,1.40
2022-09-02T12:53:24.143Z,1.45
2022-09-02T12:55:58.744Z,1.80
2022-09-02T12:58:32.509Z,1.87
2022-09-02T13:01:30.106Z,1.90
2022-09-02T13:04:23.895Z,2.50
2022-09-02T13:07:23.714Z,2.50
2022-09-02T13:10:14.644Z,2.58
2022-09-02T13:13:00.924Z,2.80
2022-09-02T13:15:44.228Z,2.62
2022-09-02T13:18:11.844Z,2.83
2022-09-02T13:21:00.731Z,2.75
2022-09-02T13:24:11.691Z,3.20
2022-09-02T13:29:41.250Z,2.50
2022-09-02T13:32:17.831Z,2.53
2022-09-02T13:34:48.769Z,2.80
2022-09-02T13:37:38.379Z,2.83
2022-09-02T13:40:17.854Z,2.58
2022-09-02T13:42:51.017Z,2.47
2022-09-02T13:45:21.333Z,2.72
2022-09-02T13:47:55.931Z,2.22
2022-09-02T13:50:26.985Z,2.60
2022-09-02T13:53:53.795Z,2.25
2022-09-02T13:56:14.933Z,2.00
2022-09-02T13:58:53.419Z,2.28
2022-09-02T14:01:27.473Z,2.58
2022-09-02T14:03:58.625Z,2.37
2022-09-02T14:06:37.350Z,2.40
2022-09-02T14:09:09.513Z,2.42
2022-09-02T14:11:48.871Z,2.00
2022-09-02T14:14:22.257Z,2.60
2022-09-02T14:16:50.452Z,1.87
2022-09-02T14:19:18.489Z,2.15
2022-09-02T14:21:51.721Z,2.20
2022-09-02T14:24:37.477Z,2.15
2022-09-02T14:27:18.416Z,2.22
2022-09-02T14:29:50.000Z,2.10
2022-09-02T14:35:09.037Z,1.95
2022-09-02T14:38:00.760Z,1.98
2022-09-02T14:40:34.584Z,1.70
2022-09-02T14:43:02.847Z,1.70
2022-09-02T14:45:35.317Z,1.80
2022-09-02T14:48:24.718Z,1.70
2022-09-02T14:51:02.613Z,1.75
2022-09-02T14:53:31.952Z,1.67
2022-09-02T14:56:00.562Z,1.50
2022-09-02T14:58:29.136Z,1.45
2022-09-02T15:01:01.493Z,1.40
2022-09-02T15:03:31.782Z,1.40
2022-09-02T15:05:59.744Z,1.30
2022-09-02T15:08:27.460Z,0.98
2022-09-02T15:10:59.601Z,1.27
2022-09-02T15:13:32.617Z,1.23
2022-09-02T15:16:02.784Z,1.00
2022-09-02T15:18:30.797Z,1.10
2022-09-02T15:20:58.701Z,1.08
2022-09-02T15:23:32.528Z,0.93
2022-09-02T15:26:02.608Z,1.00
2022-09-02T15:28:31.061Z,1.08
2022-09-02T15:30:59.913Z,1.40
2022-09-02T15:33:28.696Z,1.00
2022-09-02T15:36:06.162Z,1.20
2022-09-02T15:38:33.800Z,1.00
2022-09-02T15:41:21.808Z,1.20
2022-09-02T15:43:50.825Z,1.70
2022-09-02T15:46:30.833Z,1.12
2022-09-02T15:49:07.541Z,1.10
2022-09-02T15:51:38.563Z,1.10
2022-09-02T15:54:09.311Z,1.27
2022-09-02T15:59:12.451Z,1.20
2022-09-02T16:01:43.813Z,1.10
2022-09-02T16:04:15.307Z,1.20
2022-09-02T16:06:49.262Z,1.20
2022-09-02T16:09:19.673Z,1.30
2022-09-02T16:11:53.768Z,1.27
2022-09-02T16:14:25.931Z,1.17
2022-09-02T16:16:57.980Z,1.10
2022-09-02T16:19:30.506Z,1.30
2022-09-02T16:21:59.596Z,1.20
2022-09-02T16:24:28.462Z,1.20
2022-09-02T16:26:57.953Z,1.37
2022-09-02T16:29:31.568Z,1.40
2022-09-02T16:32:23.315Z,1.20
2022-09-02T16:34:50.981Z,1.40
2022-09-02T16:37:19.096Z,1.10
2022-09-02T16:39:46.807Z,1.25
2022-09-02T16:42:14.477Z,1.55
2022-09-02T16:44:42.672Z,1.30
2022-09-02T16:47:12.841Z,1.30
2022-09-02T16:49:42.311Z,1.23
2022-09-02T16:52:10.111Z,1.30
2022-09-02T16:54:40.743Z,1.12
2022-09-02T16:57:09.767Z,1.30
2022-09-02T16:59:37.489Z,1.20
2022-09-02T17:02:05.796Z,1.20
2022-09-02T17:04:33.896Z,1.17
2022-09-02T17:07:01.626Z,1.20
2022-09-02T17:09:29.353Z,1.23
2022-09-02T17:11:57.390Z,1.48
2022-09-02T17:14:25.875Z,1.27
2022-09-02T17:16:53.644Z,1.40
2022-09-02T17:19:22.488Z,1.33
2022-09-02T17:21:54.467Z,1.35
2022-09-02T17:24:25.100Z,1.10
2022-09-02T17:26:56.181Z,1.35
2022-09-02T17:32:15.820Z,1.20
2022-09-02T17:34:43.921Z,1.10
2022-09-02T17:37:11.776Z,1.40
2022-09-02T17:39:39.595Z,1.20
2022-09-02T17:42:07.849Z,1.17
2022-09-02T17:44:38.682Z,1.30
2022-09-02T17:49:44.705Z,1.20
2022-09-02T17:52:15.094Z,1.42
2022-09-02T17:54:43.392Z,1.30
2022-09-02T17:57:20.398Z,1.10
2022-09-02T18:00:09.381Z,1.40
2022-09-02T18:03:20.263Z,1.30
2022-09-02T18:06:19.955Z,1.00
2022-09-02T18:09:01.195Z,1.33
2022-09-02T18:11:30.390Z,1.40
2022-09-02T18:14:13.227Z,1.33
2022-09-02T18:16:51.484Z,1.10
2022-09-02T18:19:38.613Z,1.40
2022-09-02T18:22:13.149Z,1.30
2022-09-02T18:24:50.665Z,1.02
2022-09-02T18:27:36.176Z,1.48
2022-09-02T18:30:31.178Z,1.10
2022-09-02T18:33:26.462Z,1.30
2022-09-02T18:36:22.219Z,1.42
2022-09-02T18:39:13.103Z,1.55
2022-09-02T18:41:58.781Z,1.30
2022-09-02T18:44:36.209Z,1.40
2022-09-02T18:47:21.186Z,1.45
2022-09-02T18:49:52.666Z,1.42
2022-09-02T18:52:26.395Z,1.62
2022-09-02T18:55:00.204Z,1.30
2022-09-02T18:57:36.017Z,1.48
2022-09-02T19:00:11.039Z,1.35
2022-09-02T19:02:47.502Z,1.25
2022-09-02T19:05:23.410Z,1.40
2022-09-02T19:08:17.985Z,1.40
2022-09-02T19:10:45.954Z,1.20
2022-09-02T19:13:14.055Z,1.55
2022-09-02T19:15:42.361Z,1.40
2022-09-02T19:18:11.675Z,1.60
2022-09-02T19:20:39.905Z,1.40
2022-09-02T19:23:11.536Z,1.62
2022-09-02T19:25:44.313Z,1.40
2022-09-02T19:28:15.645Z,1.50
2022-09-02T19:30:44.029Z,1.30
2022-09-02T19:33:13.910Z,1.52
2022-09-02T19:35:49.049Z,1.40
2022-09-02T19:38:17.862Z,1.80
2022-09-02T19:40:49.517Z,1.58
2022-09-02T19:43:21.686Z,1.40
2022-09-02T19:45:51.323Z,1.55
2022-09-02T19:48:20.139Z,1.50
2022-09-02T19:50:48.843Z,1.60
2022-09-02T19:53:30.179Z,1.60
2022-09-02T19:56:01.481Z,1.40
2022-09-02T19:58:31.322Z,1.40
2022-09-02T20:00:59.758Z,1.20
2022-09-02T20:03:31.148Z,1.35
2022-09-02T20:05:59.165Z,1.80
2022-09-02T20:08:31.211Z,1.60
2022-09-02T20:11:02.390Z,1.55
2022-09-02T20:13:40.685Z,1.40
2022-09-02T20:16:20.407Z,1.80
2022-09-02T20:18:51.154Z,1.40
2022-09-02T20:21:23.227Z,1.60
2022-09-02T20:23:53.870Z,1.65
2022-09-02T20:26:50.237Z,1.70
2022-09-02T20:29:56.830Z,1.58
2022-09-02T20:32:49.301Z,1.80
2022-09-02T20:35:40.223Z,1.70
2022-09-02T20:38:32.091Z,1.70
2022-09-02T20:41:18.851Z,1.70
2022-09-02T20:44:26.804Z,1.70
2022-09-02T20:47:06.929Z,1.67
2022-09-02T20:49:46.493Z,1.75
2022-09-02T20:52:47.690Z,1.70
2022-09-02T20:55:35.595Z,1.80
2022-09-02T20:58:30.889Z,1.65
2022-09-02T21:01:07.085Z,1.95
2022-09-02T21:03:54.262Z,2.10
2022-09-02T21:06:27.224Z,2.08
2022-09-02T21:09:23.138Z,2.22
2022-09-02T21:12:03.969Z,2.33
2022-09-02T21:14:52.926Z,2.35
2022-09-02T21:17:30.994Z,2.50
2022-09-02T21:20:10.236Z,2.35
2022-09-02T21:22:42.253Z,2.60
2022-09-02T21:25:20.108Z,2.58
2022-09-02T21:28:02.202Z,2.35
2022-09-02T21:30:38.309Z,2.60
2022-09-02T21:33:09.965Z,2.60
2022-09-02T21:35:44.298Z,2.45
2022-09-02T21:38:23.206Z,2.67
2022-09-02T21:41:00.701Z,2.75
2022-09-02T21:43:28.413Z,2.80
2022-09-02T21:46:32.358Z,2.72
2022-09-02T21:49:12.884Z,3.00
2022-09-02T21:51:53.755Z,3.08
2022-09-02T21:55:02.840Z,2.78
2022-09-02T21:57:53.788Z,2.60
2022-09-02T22:00:24.053Z,3.03
2022-09-02T22:03:18.132Z,3.10
2022-09-02T22:05:57.971Z,3.03
2022-09-02T22:08:50.560Z,2.43
2022-09-02T22:11:36.942Z,2.62
2022-09-02T22:14:16.695Z,2.65
2022-09-02T22:17:04.839Z,2.70
2022-09-02T22:19:39.219Z,2.53
2022-09-02T22:22:14.349Z,2.70
2022-09-02T22:24:42.676Z,2.50
2022-09-02T22:27:34.271Z,2.90
2022-09-02T22:30:26.792Z,2.50
2022-09-02T22:33:07.271Z,2.65
2022-09-02T22:35:50.948Z,2.62
2022-09-02T22:38:29.077Z,2.70
2022-09-02T22:41:20.193Z,2.28
2022-09-02T22:43:52.005Z,2.33
2022-09-02T22:47:08.277Z,2.40
2022-09-02T22:50:18.650Z,2.60
2022-09-02T22:52:49.408Z,2.42
2022-09-02T22:55:26.641Z,2.20
2022-09-02T22:57:57.916Z,2.42
2022-09-02T23:00:27.995Z,2.40
2022-09-02T23:03:21.434Z,1.95
2022-09-02T23:06:08.064Z,2.60
2022-09-02T23:08:40.410Z,2.53
2022-09-02T23:11:13.124Z,2.28
2022-09-02T23:13:56.093Z,2.62
2022-09-02T23:16:51.636Z,2.70
2022-09-02T23:19:56.498Z,2.95
2022-09-02T23:22:41.081Z,3.00
2022-09-02T23:25:30.275Z,3.05
2022-09-02T23:28:28.237Z,3.25
2022-09-02T23:31:31.206Z,3.03
2022-09-02T23:34:30.939Z,3.47
2022-09-02T23:37:35.310Z,3.20
2022-09-02T23:40:30.815Z,3.65
2022-09-02T23:42:59.459Z,3.12
2022-09-02T23:45:34.089Z,3.10
2022-09-02T23:48:27.436Z,3.05
2022-09-02T23:51:13.944Z,3.08
2022-09-02T23:53:48.334Z,2.75
2022-09-02T23:56:32.753Z,2.97
2022-09-02T23:59:22.523Z,3.00
